Time;durP1;ratioP1;P1;durP2;ratioP2;P2;SDS_P1;SDS_P2;PMS_P1;PMS_P2;Temp;Humidity;BMP_temperature;BMP_pressure;BME280_temperature;BME280_humidity;BME280_pressure;Samples;Min_cycle;Max_cycle;Signal;HPM_P1;HPM_P2
2022/02/23 00:00:20;;;;;;;;;;;;;;;6.53;75.71;98150.88;5072454;28;20005;-92
2022/02/23 00:02:48;;;;;;;;;;;;;;;6.52;75.40;98158.19;5078612;28;19967;-92
2022/02/23 00:05:56;;;;;;;;;;;;;;;6.52;75.85;98154.66;5077758;28;19909;-90
2022/02/23 00:08:30;;;;;;;;;;;;;;;6.60;75.97;98166.75;5073867;28;19947;-86
2022/02/23 00:11:02;;;;;;;;;;;;;;;6.73;75.74;98156.16;5054713;28;19921;-90
2022/02/23 00:16:51;;;;;;;;;;;;;;;6.57;75.62;98147.34;5079556;22;19934;-85
2022/02/23 00:22:45;;;;;;;;;;;;;;;6.57;76.08;98162.75;5177070;23;19928;-85
2022/02/23 00:25:16;;;;;;;;;;;;;;;6.65;75.64;98156.75;5073318;28;19933;-91
2022/02/23 00:31:47;;;;;;;;;;;;;;;6.77;75.18;98165.31;4995932;28;19917;-91
2022/02/23 00:34:16;;;;;;;;;;;;;;;6.61;75.76;98163.81;5010112;28;19910;-92
2022/02/23 00:36:49;;;;;;;;;;;;;;;6.77;75.94;98165.31;5010154;28;19922;-84
2022/02/23 00:42:34;;;;;;;;;;;;;;;6.75;76.01;98190.97;5032333;28;19964;-83
2022/02/23 00:45:05;;;;;;;;;;;;;;;6.78;75.79;98203.94;5034094;28;19989;-89
2022/02/23 00:47:33;;;;;;;;;;;;;;;6.96;75.61;98207.84;5036069;28;19938;-90
2022/02/23 00:50:03;;;;;;;;;;;;;;;6.76;76.43;98203.38;5033333;28;19909;-89
2022/02/23 00:52:34;;;;;;;;;;;;;;;6.69;77.12;98219.91;5031697;28;19956;-92
2022/02/23 00:55:02;;;;;;;;;;;;;;;6.76;77.01;98215.00;5035334;28;19939;-87
2022/02/23 01:11:37;;;;;;;;;;;;;;;6.75;73.13;98259.28;5192521;23;19909;-86
2022/02/23 01:17:27;;;;;;;;;;;;;;;6.66;69.21;98260.97;5088286;22;19921;-91
2022/02/23 01:31:04;;;;;;;;;;;;;;;6.51;67.70;98288.03;4978522;28;19926;-94
2022/02/23 01:54:41;;;;;;;;;;;;;;;6.48;70.43;98312.84;4992551;28;19970;-88
2022/02/23 02:01:15;;;;;;;;;;;;;;;6.41;70.85;98329.34;5039556;22;19938;-90
2022/02/23 02:07:52;;;;;;;;;;;;;;;6.41;71.06;98339.34;5696000;23;19913;-88
2022/02/23 02:10:26;;;;;;;;;;;;;;;6.44;70.30;98352.25;5180988;23;19952;-92
2022/02/23 02:31:22;;;;;;;;;;;;;;;6.21;70.58;98375.25;5383002;23;20816;-85
2022/02/23 03:02:52;;;;;;;;;;;;;;;5.97;68.65;98455.91;5039455;28;19937;-93
2022/02/23 03:05:47;;;;;;;;;;;;;;;5.86;69.05;98454.22;5040465;28;20433;-92
2022/02/23 03:31:56;;;;;;;;;;;;;;;5.59;69.17;98536.09;4996420;28;19916;-86
2022/02/23 03:38:18;;;;;;;;;;;;;;;5.54;69.13;98549.56;5210819;22;19914;-85
2022/02/23 03:40:50;;;;;;;;;;;;;;;5.49;69.79;98558.44;5020770;28;19915;-86
2022/02/23 04:00:22;;;;;;;;;;;;;;;5.34;70.50;98576.41;4951999;28;19911;-89
2022/02/23 04:02:53;;;;;;;;;;;;;;;5.28;70.66;98582.84;4950928;29;19927;-90
2022/02/23 04:12:19;;;;;;;;;;;;;;;5.19;71.06;98588.72;4984677;28;19914;-92
2022/02/23 04:19:26;;;;;;;;;;;;;;;5.08;71.32;98611.25;4976974;28;19925;-89
2022/02/23 04:25:13;;;;;;;;;;;;;;;5.06;72.19;98626.03;4996982;28;19937;-84
2022/02/23 04:27:44;;;;;;;;;;;;;;;5.09;71.88;98639.00;5002339;28;19924;-88
2022/02/23 04:30:12;;;;;;;;;;;;;;;5.14;71.40;98645.25;5001892;28;19932;-90
2022/02/23 04:32:40;;;;;;;;;;;;;;;5.08;71.95;98643.59;4998308;28;19997;-89
2022/02/23 04:35:08;;;;;;;;;;;;;;;5.13;71.64;98640.94;4992894;28;19969;-95
2022/02/23 04:37:36;;;;;;;;;;;;;;;5.11;72.46;98640.34;4997186;28;19986;-92
2022/02/23 04:40:04;;;;;;;;;;;;;;;5.16;71.83;98645.78;4997937;28;19949;-91
2022/02/23 04:42:34;;;;;;;;;;;;;;;5.31;71.36;98655.06;4993745;28;19926;-91
2022/02/23 04:45:02;;;;;;;;;;;;;;;5.20;71.64;98657.66;4995818;28;19917;-91
2022/02/23 04:47:30;;;;;;;;;;;;;;;5.04;72.55;98661.31;4996726;28;19938;-91
2022/02/23 04:50:04;;;;;;;;;;;;;;;5.18;71.88;98659.81;5066373;22;19933;-83
2022/02/23 04:58:56;;;;;;;;;;;;;;;4.81;72.98;98680.50;5172848;23;19916;-88
2022/02/23 05:07:41;;;;;;;;;;;;;;;4.73;72.42;98696.03;5439985;22;19910;-92
2022/02/23 05:10:14;;;;;;;;;;;;;;;4.55;72.27;98704.47;5001588;28;19926;-92
2022/02/23 05:12:43;;;;;;;;;;;;;;;4.58;72.43;98712.03;4996761;28;20381;-92
2022/02/23 05:18:29;;;;;;;;;;;;;;;4.46;72.73;98719.41;4993564;28;19996;-84
2022/02/23 05:21:03;;;;;;;;;;;;;;;4.43;73.20;98719.94;5446832;23;19984;-86
2022/02/23 05:24:11;;;;;;;;;;;;;;;4.56;72.61;98716.03;4948961;27;2142539;-89
2022/02/23 05:26:41;;;;;;;;;;;;;;;4.51;72.77;98735.63;5003215;28;20312;-89
2022/02/23 05:29:12;;;;;;;;;;;;;;;4.52;72.44;98731.06;5015839;28;19933;-91
2022/02/23 05:31:40;;;;;;;;;;;;;;;4.38;72.93;98734.13;4985969;28;20014;-90
2022/02/23 05:34:08;;;;;;;;;;;;;;;4.43;72.28;98741.47;4997549;28;20406;-89
2022/02/23 05:36:39;;;;;;;;;;;;;;;4.39;72.76;98749.22;4996651;28;19926;-89
2022/02/23 05:39:08;;;;;;;;;;;;;;;4.46;72.21;98759.78;5001484;28;19933;-90
2022/02/23 05:41:36;;;;;;;;;;;;;;;4.35;72.67;98763.41;4997564;28;19961;-86
2022/02/23 05:44:06;;;;;;;;;;;;;;;4.43;72.53;98761.09;4994361;28;19981;-90
2022/02/23 05:46:34;;;;;;;;;;;;;;;4.44;72.51;98756.53;5014253;28;20346;-89
2022/02/23 05:49:02;;;;;;;;;;;;;;;4.47;72.06;98764.09;5015167;28;19976;-92
2022/02/23 05:51:30;;;;;;;;;;;;;;;4.52;72.04;98769.53;4982453;28;20398;-84
2022/02/23 05:53:59;;;;;;;;;;;;;;;4.36;72.34;98786.56;5000513;28;19930;-92
2022/02/23 05:56:27;;;;;;;;;;;;;;;4.29;72.76;98794.00;5011899;28;19930;-89
2022/02/23 05:58:55;;;;;;;;;;;;;;;4.31;72.75;98799.94;5028297;28;19933;-86
2022/02/23 06:01:24;;;;;;;;;;;;;;;4.25;72.60;98801.75;4999729;28;19949;-90
2022/02/23 06:03:53;;;;;;;;;;;;;;;4.20;73.00;98810.56;4998670;28;19930;-77
2022/02/23 06:06:24;;;;;;;;;;;;;;;4.16;73.07;98806.75;4998643;28;19952;-80
2022/02/23 06:08:52;;;;;;;;;;;;;;;4.18;73.07;98812.69;4977179;28;19926;-80
2022/02/23 06:11:24;;;;;;;;;;;;;;;4.28;72.50;98820.09;4996342;28;20292;-79
2022/02/23 06:13:52;;;;;;;;;;;;;;;4.24;72.68;98826.22;4995294;28;19930;-79
2022/02/23 06:16:20;;;;;;;;;;;;;;;4.18;73.21;98823.44;4998480;28;19969;-94
2022/02/23 06:18:49;;;;;;;;;;;;;;;4.17;73.23;98827.19;5001826;28;19935;-92
2022/02/23 06:21:20;;;;;;;;;;;;;;;4.23;72.56;98838.84;4998636;28;19926;-90
2022/02/23 06:23:48;;;;;;;;;;;;;;;4.26;72.77;98835.66;5000693;28;19963;-86
2022/02/23 06:26:16;;;;;;;;;;;;;;;4.32;72.92;98840.06;5001294;28;19925;-93
2022/02/23 06:28:47;;;;;;;;;;;;;;;4.30;72.30;98846.72;4984430;28;19948;-94
2022/02/23 06:31:19;;;;;;;;;;;;;;;4.32;72.45;98850.00;4994571;28;19942;-92
2022/02/23 06:33:48;;;;;;;;;;;;;;;4.21;72.53;98854.44;5002783;28;19930;-94
2022/02/23 06:36:20;;;;;;;;;;;;;;;4.32;72.07;98855.38;4976961;28;19952;-95
2022/02/23 06:38:51;;;;;;;;;;;;;;;4.31;72.28;98856.44;4988334;28;19933;-93
2022/02/23 06:41:22;;;;;;;;;;;;;;;4.35;72.14;98852.19;5006705;28;20391;-92
2022/02/23 06:43:50;;;;;;;;;;;;;;;4.16;72.42;98857.84;4987466;28;19929;-93
2022/02/23 06:46:23;;;;;;;;;;;;;;;4.06;73.20;98863.06;4992577;28;19933;-92
2022/02/23 06:48:51;;;;;;;;;;;;;;;3.99;73.41;98866.97;4991735;28;19926;-93
2022/02/23 06:51:22;;;;;;;;;;;;;;;4.03;73.17;98865.44;4991108;28;19934;-95
2022/02/23 06:53:52;;;;;;;;;;;;;;;4.07;73.15;98874.66;4992854;28;19947;-92
2022/02/23 06:56:20;;;;;;;;;;;;;;;4.07;73.32;98878.13;4991071;28;19961;-93
2022/02/23 06:58:49;;;;;;;;;;;;;;;4.04;73.42;98878.63;4988476;28;19937;-93
2022/02/23 07:01:20;;;;;;;;;;;;;;;4.04;73.06;98886.69;4988739;28;20016;-93
2022/02/23 07:03:49;;;;;;;;;;;;;;;4.19;72.59;98884.25;4988223;28;19930;-94
2022/02/23 07:06:17;;;;;;;;;;;;;;;4.10;72.91;98888.41;4988230;28;19936;-90
2022/02/23 07:08:58;;;;;;;;;;;;;;;4.12;72.95;98888.97;4994388;28;20017;-93
2022/02/23 07:11:26;;;;;;;;;;;;;;;4.07;73.06;98894.28;4987841;28;19934;-94
2022/02/23 07:13:54;;;;;;;;;;;;;;;4.22;72.84;98899.09;5000914;28;20379;-91
2022/02/23 07:16:23;;;;;;;;;;;;;;;4.26;72.85;98902.06;4989795;28;19930;-94
2022/02/23 07:18:51;;;;;;;;;;;;;;;4.15;72.58;98893.84;4985131;28;19981;-92
2022/02/23 07:21:21;;;;;;;;;;;;;;;4.25;72.70;98908.53;4991703;28;19932;-93
2022/02/23 07:23:51;;;;;;;;;;;;;;;4.43;72.22;98916.34;5005067;28;19930;-94
2022/02/23 07:26:20;;;;;;;;;;;;;;;4.51;71.97;98918.59;5008999;28;19923;-92
2022/02/23 07:28:49;;;;;;;;;;;;;;;4.47;72.25;98933.59;5009103;28;19930;-92
2022/02/23 07:31:18;;;;;;;;;;;;;;;4.47;72.07;98939.00;5004733;28;19933;-93
2022/02/23 07:33:46;;;;;;;;;;;;;;;4.59;71.87;98947.00;5010588;28;19930;-93
2022/02/23 07:36:16;;;;;;;;;;;;;;;4.55;71.91;98952.03;5005380;28;19932;-94
2022/02/23 07:38:45;;;;;;;;;;;;;;;4.63;71.91;98957.00;4990910;28;22185;-93
2022/02/23 07:41:22;;;;;;;;;;;;;;;4.61;71.21;98956.44;5006228;28;19961;-91
2022/02/23 07:44:12;;;;;;;;;;;;;;;4.65;71.20;98971.03;5003761;28;19926;-93
2022/02/23 07:46:42;;;;;;;;;;;;;;;4.66;71.59;98974.53;5008762;28;19940;-95
2022/02/23 07:49:10;;;;;;;;;;;;;;;4.68;71.88;98972.41;5012867;28;19932;-92
2022/02/23 07:51:38;;;;;;;;;;;;;;;4.71;71.34;98974.63;5011793;28;19933;-94
2022/02/23 07:54:06;;;;;;;;;;;;;;;4.89;71.13;98978.91;5009720;28;19971;-93
2022/02/23 07:56:34;;;;;;;;;;;;;;;4.96;70.61;98979.56;5022218;28;19931;-91
2022/02/23 07:59:02;;;;;;;;;;;;;;;4.84;70.80;98985.03;5012053;28;19926;-93
2022/02/23 08:01:32;;;;;;;;;;;;;;;5.00;71.04;98988.75;5007783;28;20295;-92
2022/02/23 08:04:00;;;;;;;;;;;;;;;5.03;70.26;98990.16;5015316;28;19925;-94
2022/02/23 08:06:31;;;;;;;;;;;;;;;5.16;70.04;98987.88;5016113;28;19929;-90
2022/02/23 08:08:59;;;;;;;;;;;;;;;5.30;70.17;99003.69;5008344;28;19961;-93
2022/02/23 08:11:29;;;;;;;;;;;;;;;5.28;70.31;99003.16;5010460;28;19951;-93
2022/02/23 08:13:58;;;;;;;;;;;;;;;5.30;70.19;98998.31;5008215;28;19957;-95
2022/02/23 08:19:31;;;;;;;;;;;;;;;5.65;68.63;99000.63;4997591;28;19925;-96
2022/02/23 08:22:03;;;;;;;;;;;;;;;5.59;69.45;99005.13;5008366;28;19925;-93
2022/02/23 08:24:33;;;;;;;;;;;;;;;5.69;69.06;99009.81;4992706;28;20020;-91
2022/02/23 08:27:01;;;;;;;;;;;;;;;5.77;69.00;99007.50;5004869;28;19931;-91
2022/02/23 08:29:29;;;;;;;;;;;;;;;5.97;68.42;99008.81;5010172;28;19948;-90
2022/02/23 08:31:57;;;;;;;;;;;;;;;5.93;68.53;99016.59;5004332;28;19926;-92
2022/02/23 08:34:27;;;;;;;;;;;;;;;5.86;68.79;99015.97;5009763;28;19925;-96
2022/02/23 08:36:55;;;;;;;;;;;;;;;6.10;68.08;99016.50;5026584;28;19925;-94
2022/02/23 08:39:23;;;;;;;;;;;;;;;6.21;67.65;99015.53;5010817;28;20017;-92
2022/02/23 08:41:51;;;;;;;;;;;;;;;6.42;67.14;99026.50;5014523;28;20020;-92
2022/02/23 08:44:20;;;;;;;;;;;;;;;6.33;67.11;99026.16;5016545;28;20392;-93
2022/02/23 08:46:49;;;;;;;;;;;;;;;6.28;67.41;99024.25;5006235;28;19925;-91
2022/02/23 08:49:17;;;;;;;;;;;;;;;6.33;67.27;99036.13;5002624;28;19926;-94
2022/02/23 08:51:47;;;;;;;;;;;;;;;6.19;66.61;99036.56;5008865;28;19926;-92
2022/02/23 08:57:09;;;;;;;;;;;;;;;6.20;66.65;99046.28;5009942;28;19925;-93
2022/02/23 08:59:36;;;;;;;;;;;;;;;6.22;66.44;99046.81;4994072;28;19961;-94
2022/02/23 09:02:05;;;;;;;;;;;;;;;6.15;67.33;99051.63;4993237;28;19982;-94
2022/02/23 09:04:33;;;;;;;;;;;;;;;6.23;66.74;99048.47;5018202;28;20020;-94
2022/02/23 09:07:03;;;;;;;;;;;;;;;6.72;65.11;99055.66;5011196;28;19926;-94
2022/02/23 09:09:33;;;;;;;;;;;;;;;6.56;65.24;99047.44;5011100;28;19934;-93
2022/02/23 09:12:02;;;;;;;;;;;;;;;6.65;65.42;99050.44;5017048;28;19925;-93
2022/02/23 09:14:30;;;;;;;;;;;;;;;7.01;64.39;99056.13;5007011;28;19929;-93
2022/02/23 09:16:59;;;;;;;;;;;;;;;7.07;63.63;99055.09;5011922;28;19930;-94
2022/02/23 09:19:27;;;;;;;;;;;;;;;6.81;64.32;99054.91;5018211;28;19936;-94
2022/02/23 09:21:55;;;;;;;;;;;;;;;6.99;64.34;99051.00;5014092;28;19929;-95
2022/02/23 09:24:24;;;;;;;;;;;;;;;6.99;63.39;99055.59;5004276;28;19937;-94
2022/02/23 09:26:52;;;;;;;;;;;;;;;6.89;62.30;99060.91;4996502;28;19970;-95
2022/02/23 09:29:20;;;;;;;;;;;;;;;6.85;63.45;99067.91;5002537;28;19956;-94
2022/02/23 09:31:47;;;;;;;;;;;;;;;7.10;62.78;99059.97;5012124;28;19972;-93
2022/02/23 09:34:18;;;;;;;;;;;;;;;6.85;61.76;99060.59;5009040;28;20015;-92
2022/02/23 09:36:46;;;;;;;;;;;;;;;6.73;62.51;99068.91;5011349;28;19925;-94
2022/02/23 09:39:13;;;;;;;;;;;;;;;6.83;61.95;99068.16;5015092;28;19924;-94
2022/02/23 09:41:42;;;;;;;;;;;;;;;6.87;61.96;99068.44;5008963;28;19926;-93
2022/02/23 09:44:11;;;;;;;;;;;;;;;6.65;62.45;99061.25;5007605;28;20391;-92
2022/02/23 09:46:39;;;;;;;;;;;;;;;6.69;62.16;99069.66;4996919;28;20387;-93
2022/02/23 09:49:09;;;;;;;;;;;;;;;7.07;61.40;99068.59;5009539;28;19930;-93
2022/02/23 09:51:38;;;;;;;;;;;;;;;6.81;61.41;99068.41;5007902;28;20343;-94
2022/02/23 09:54:05;;;;;;;;;;;;;;;6.65;61.38;99068.53;5022196;28;19926;-94
2022/02/23 09:56:33;;;;;;;;;;;;;;;6.75;61.24;99071.31;5003960;28;19948;-93
2022/02/23 09:59:03;;;;;;;;;;;;;;;6.81;60.27;99063.00;5001979;28;19954;-95
2022/02/23 10:01:32;;;;;;;;;;;;;;;6.88;60.15;99070.91;5024774;28;19970;-96
2022/02/23 10:04:01;;;;;;;;;;;;;;;6.91;60.46;99070.38;4994700;28;19930;-92
2022/02/23 10:06:32;;;;;;;;;;;;;;;6.94;60.88;99069.06;5010763;28;20020;-94
2022/02/23 10:09:00;;;;;;;;;;;;;;;6.85;58.99;99070.59;5013562;28;19930;-92
2022/02/23 10:11:29;;;;;;;;;;;;;;;6.69;59.54;99067.78;4997210;28;20414;-94
2022/02/23 10:13:57;;;;;;;;;;;;;;;6.91;59.68;99070.38;5022654;28;19925;-96
2022/02/23 10:16:33;;;;;;;;;;;;;;;7.05;59.38;99065.34;5019897;28;19926;-95
2022/02/23 10:19:11;;;;;;;;;;;;;;;7.52;57.16;99068.06;5010922;28;19968;-95
2022/02/23 10:21:49;;;;;;;;;;;;;;;7.50;56.35;99066.69;5032881;28;19936;-89
2022/02/23 10:24:22;;;;;;;;;;;;;;;7.39;56.71;99067.72;5014518;28;19971;-94
2022/02/23 10:26:56;;;;;;;;;;;;;;;7.40;56.42;99062.03;5023152;28;19925;-95
2022/02/23 10:29:35;;;;;;;;;;;;;;;7.47;57.33;99059.13;5017047;28;19930;-95
2022/02/23 10:32:07;;;;;;;;;;;;;;;7.35;56.92;99068.25;5022652;28;19929;-96
2022/02/23 10:34:39;;;;;;;;;;;;;;;7.30;57.41;99062.81;5008630;28;19929;-96
2022/02/23 10:37:13;;;;;;;;;;;;;;;7.11;57.82;99067.00;5014451;28;20028;-93
2022/02/23 10:39:42;;;;;;;;;;;;;;;7.14;57.46;99069.22;5017434;28;20638;-94
2022/02/23 10:42:11;;;;;;;;;;;;;;;7.35;56.03;99075.56;4979990;28;19973;-94
2022/02/23 10:44:42;;;;;;;;;;;;;;;7.13;56.45;99070.25;5015748;28;19925;-95
2022/02/23 10:47:22;;;;;;;;;;;;;;;7.16;56.54;99066.22;5012606;28;19968;-81
2022/02/23 10:50:03;;;;;;;;;;;;;;;7.22;56.23;99066.00;5005743;28;19934;-82
2022/02/23 10:52:32;;;;;;;;;;;;;;;7.26;56.26;99069.00;4981489;28;20028;-82
2022/02/23 10:55:16;;;;;;;;;;;;;;;7.58;56.04;99072.41;5008942;28;19933;-82
2022/02/23 10:57:44;;;;;;;;;;;;;;;7.66;53.23;99064.88;4982152;28;20395;-80
2022/02/23 11:00:13;;;;;;;;;;;;;;;7.96;51.37;99058.78;5000365;28;20028;-79
2022/02/23 11:02:43;;;;;;;;;;;;;;;8.05;50.82;99062.59;4976025;28;19929;-79
2022/02/23 11:05:12;;;;;;;;;;;;;;;8.23;51.45;99056.66;5023114;28;19930;-89
2022/02/23 11:07:47;;;;;;;;;;;;;;;8.36;51.83;99053.50;5032903;28;19932;-93
2022/02/23 11:10:17;;;;;;;;;;;;;;;8.45;51.99;99052.94;5039696;28;20000;-89
2022/02/23 11:12:54;;;;;;;;;;;;;;;8.25;52.70;99048.28;5028065;28;19930;-91
2022/02/23 11:15:31;;;;;;;;;;;;;;;8.10;53.02;99046.38;5046902;28;20149;-88
2022/02/23 11:18:02;;;;;;;;;;;;;;;8.05;53.14;99046.34;5052846;28;19998;-94
2022/02/23 11:20:32;;;;;;;;;;;;;;;8.46;51.75;99041.03;5034668;28;19936;-95
2022/02/23 11:23:01;;;;;;;;;;;;;;;8.35;50.14;99037.47;5022264;28;19926;-88
2022/02/23 11:37:25;;;;;;;;;;;;;;;8.91;49.92;99027.47;4970481;28;19980;-83
2022/02/23 11:39:53;;;;;;;;;;;;;;;8.89;49.49;99026.13;4972178;28;20036;-91
2022/02/23 11:42:21;;;;;;;;;;;;;;;8.81;49.01;99021.25;4974680;28;19930;-81
2022/02/23 11:45:05;;;;;;;;;;;;;;;8.72;49.00;99018.28;4972675;28;19934;-86
2022/02/23 11:47:47;;;;;;;;;;;;;;;8.93;47.25;99014.47;4952746;28;20288;-77
2022/02/23 11:50:33;;;;;;;;;;;;;;;8.84;47.30;99013.41;4972843;28;20086;-93
2022/02/23 11:56:25;;;;;;;;;;;;;;;9.25;44.00;99009.78;4989219;28;19934;-93
2022/02/23 11:59:22;;;;;;;;;;;;;;;8.98;46.11;99007.41;5004719;28;19951;-87
2022/02/23 12:01:53;;;;;;;;;;;;;;;9.26;45.69;98995.94;5028896;28;19996;-94
2022/02/23 12:04:21;;;;;;;;;;;;;;;9.00;44.77;98997.09;5025657;28;19925;-89
2022/02/23 12:07:11;;;;;;;;;;;;;;;9.00;45.38;98994.38;5026833;28;19993;-93
2022/02/23 12:10:06;;;;;;;;;;;;;;;9.27;45.30;98986.75;5024755;28;19975;-92
2022/02/23 12:12:41;;;;;;;;;;;;;;;9.07;44.72;98992.22;5028314;28;19964;-93
2022/02/23 12:15:30;;;;;;;;;;;;;;;9.35;45.17;98991.59;5026581;28;19926;-93
2022/02/23 12:18:00;;;;;;;;;;;;;;;9.32;43.95;98984.03;5021576;28;19933;-89
2022/02/23 12:20:48;;;;;;;;;;;;;;;9.73;44.26;98977.59;5017576;28;19925;-93
2022/02/23 12:23:34;;;;;;;;;;;;;;;9.93;42.58;98981.00;5011781;28;19925;-93
2022/02/23 12:26:25;;;;;;;;;;;;;;;9.80;43.61;98975.38;5027250;28;19985;-89
2022/02/23 12:28:56;;;;;;;;;;;;;;;9.78;43.40;98961.28;5026699;28;20027;-91
2022/02/23 12:31:29;;;;;;;;;;;;;;;10.05;43.09;98964.38;5064306;28;20765;-93
2022/02/23 12:33:58;;;;;;;;;;;;;;;9.65;41.42;98965.44;5049419;28;20394;-90
2022/02/23 12:36:43;;;;;;;;;;;;;;;9.47;42.50;98955.19;5055801;28;20345;-92
2022/02/23 12:39:11;;;;;;;;;;;;;;;9.14;43.36;98960.22;5066969;28;19948;-83
2022/02/23 12:42:01;;;;;;;;;;;;;;;9.16;43.36;98964.28;5276745;22;19924;-89
2022/02/23 12:45:02;;;;;;;;;;;;;;;9.26;44.26;98949.84;5160469;22;19935;-92
2022/02/23 12:47:57;;;;;;;;;;;;;;;9.82;43.10;98948.78;5121780;28;19920;-89
2022/02/23 12:50:36;;;;;;;;;;;;;;;9.78;42.68;98953.13;5104743;28;19944;-91
2022/02/23 12:53:04;;;;;;;;;;;;;;;9.75;43.65;98959.13;5097776;28;19920;-91
2022/02/23 12:55:32;;;;;;;;;;;;;;;9.79;43.44;98952.84;5124293;27;19929;-93
2022/02/23 12:58:05;;;;;;;;;;;;;;;9.84;43.72;98952.00;5093405;28;19991;-93
2022/02/23 13:00:34;;;;;;;;;;;;;;;9.73;42.96;98950.44;5095461;28;19920;-93
2022/02/23 13:03:08;;;;;;;;;;;;;;;9.94;42.60;98932.94;5097587;28;19920;-91
2022/02/23 13:05:43;;;;;;;;;;;;;;;9.81;41.40;98934.41;5100774;28;20374;-93
2022/02/23 13:08:11;;;;;;;;;;;;;;;10.31;40.86;98935.16;5100926;28;20026;-93
2022/02/23 13:10:58;;;;;;;;;;;;;;;10.25;41.26;98935.47;5090278;28;19934;-92
2022/02/23 13:13:40;;;;;;;;;;;;;;;10.30;41.70;98933.53;5117557;28;19973;-94
2022/02/23 13:16:24;;;;;;;;;;;;;;;10.32;40.67;98925.91;5088324;28;19988;-92
2022/02/23 13:18:59;;;;;;;;;;;;;;;10.48;40.70;98913.78;5091050;28;19970;-92
2022/02/23 13:21:44;;;;;;;;;;;;;;;10.81;42.18;98916.72;5093145;28;20382;-92
2022/02/23 13:24:14;;;;;;;;;;;;;;;10.22;40.34;98920.50;5091267;28;20275;-92
2022/02/23 13:26:43;;;;;;;;;;;;;;;9.98;41.53;98921.25;5124345;28;19920;-92
2022/02/23 13:29:12;;;;;;;;;;;;;;;10.03;40.92;98922.31;5114451;28;19927;-90
2022/02/23 13:31:41;;;;;;;;;;;;;;;9.68;41.23;98924.16;5105751;28;19920;-88
2022/02/23 13:34:25;;;;;;;;;;;;;;;9.79;42.05;98916.75;5112858;28;19942;-88
2022/02/23 13:36:55;;;;;;;;;;;;;;;9.90;40.74;98907.47;5099145;28;19927;-93
2022/02/23 13:39:24;;;;;;;;;;;;;;;9.90;42.29;98913.69;5102119;28;19927;-92
2022/02/23 13:41:53;;;;;;;;;;;;;;;10.03;41.27;98911.47;5099297;28;19928;-94
2022/02/23 13:44:21;;;;;;;;;;;;;;;10.08;41.96;98914.13;5102262;28;19920;-93
2022/02/23 13:46:59;;;;;;;;;;;;;;;10.61;41.67;98911.53;5094064;28;19970;-92
2022/02/23 13:49:30;;;;;;;;;;;;;;;10.78;40.95;98913.81;5093198;28;19969;-93
2022/02/23 13:51:58;;;;;;;;;;;;;;;10.43;42.30;98905.69;5096972;28;19936;-92
2022/02/23 13:54:26;;;;;;;;;;;;;;;10.12;41.37;98905.13;5094274;28;19985;-93
2022/02/23 13:56:56;;;;;;;;;;;;;;;9.89;41.87;98906.66;5101099;28;19927;-90
2022/02/23 13:59:50;;;;;;;;;;;;;;;9.65;42.54;98911.97;5125302;28;19927;-94
2022/02/23 14:02:26;;;;;;;;;;;;;;;9.95;42.28;98904.72;5104129;28;19926;-94
2022/02/23 14:05:08;;;;;;;;;;;;;;;10.36;42.11;98905.22;5097879;28;19973;-93
2022/02/23 14:07:44;;;;;;;;;;;;;;;10.23;41.97;98905.88;5094801;28;19924;-93
2022/02/23 14:10:23;;;;;;;;;;;;;;;9.94;42.17;98903.09;5097137;28;19924;-94
2022/02/23 14:12:57;;;;;;;;;;;;;;;9.90;43.24;98891.97;5100874;28;19927;-93
2022/02/23 14:15:30;;;;;;;;;;;;;;;10.28;42.17;98891.44;5091979;28;19981;-93
2022/02/23 14:18:14;;;;;;;;;;;;;;;10.17;43.48;98880.66;5091372;28;19955;-90
2022/02/23 14:20:50;;;;;;;;;;;;;;;9.94;44.00;98882.19;5092779;28;19923;-93
2022/02/23 14:23:21;;;;;;;;;;;;;;;9.89;44.60;98881.41;5098487;28;19927;-94
2022/02/23 14:25:57;;;;;;;;;;;;;;;10.14;43.96;98877.69;5096624;28;20258;-93
2022/02/23 14:28:26;;;;;;;;;;;;;;;10.31;41.74;98874.59;5097048;28;19927;-93
2022/02/23 14:30:54;;;;;;;;;;;;;;;10.44;41.78;98872.03;5105960;28;19920;-93
2022/02/23 14:33:27;;;;;;;;;;;;;;;10.75;40.77;98868.97;5097254;28;19920;-92
2022/02/23 14:35:56;;;;;;;;;;;;;;;10.60;40.15;98864.53;5084733;28;19925;-93
2022/02/23 14:38:25;;;;;;;;;;;;;;;10.58;40.39;98861.28;5089478;28;20639;-93
2022/02/23 14:40:52;;;;;;;;;;;;;;;10.29;40.72;98861.28;5094150;28;19927;-94
2022/02/23 14:43:21;;;;;;;;;;;;;;;10.26;41.36;98861.84;5090177;28;19932;-93
2022/02/23 14:45:50;;;;;;;;;;;;;;;10.60;41.06;98855.53;5107036;28;19924;-94
2022/02/23 14:48:19;;;;;;;;;;;;;;;10.83;40.09;98848.50;5090547;28;19928;-93
2022/02/23 14:50:58;;;;;;;;;;;;;;;10.49;41.00;98849.41;5092909;28;20239;-93
2022/02/23 14:53:29;;;;;;;;;;;;;;;10.46;41.14;98848.09;5091421;28;19920;-94
2022/02/23 14:55:57;;;;;;;;;;;;;;;10.09;41.50;98845.16;5087687;28;19982;-95
2022/02/23 14:58:29;;;;;;;;;;;;;;;9.94;42.04;98843.38;5089905;28;19920;-94
2022/02/23 15:03:53;;;;;;;;;;;;;;;10.30;41.31;98848.53;5088425;28;19950;-94
2022/02/23 15:06:28;;;;;;;;;;;;;;;10.39;41.32;98844.91;5091378;28;19977;-93
2022/02/23 15:08:57;;;;;;;;;;;;;;;10.29;40.69;98844.19;5095264;28;19949;-95
2022/02/23 15:11:25;;;;;;;;;;;;;;;10.07;41.39;98841.94;5092726;28;19927;-96
2022/02/23 15:14:14;;;;;;;;;;;;;;;10.37;39.95;98836.22;5093479;28;19928;-94
2022/02/23 15:16:42;;;;;;;;;;;;;;;10.30;40.27;98840.38;5095488;28;19942;-95
2022/02/23 15:19:10;;;;;;;;;;;;;;;9.96;40.84;98836.59;5110153;28;19920;-92
2022/02/23 15:21:39;;;;;;;;;;;;;;;9.88;41.38;98839.88;5098464;28;19942;-94
2022/02/23 15:24:08;;;;;;;;;;;;;;;10.28;40.12;98840.66;5087917;28;19920;-94
2022/02/23 15:26:36;;;;;;;;;;;;;;;10.30;41.45;98841.19;5096614;28;19942;-92
2022/02/23 15:29:04;;;;;;;;;;;;;;;9.97;40.35;98843.63;5099642;28;20389;-94
2022/02/23 15:31:32;;;;;;;;;;;;;;;9.87;40.23;98846.41;5095479;28;19924;-93
2022/02/23 15:34:03;;;;;;;;;;;;;;;9.60;39.48;98836.03;5110902;28;19979;-86
2022/02/23 15:36:31;;;;;;;;;;;;;;;9.63;39.04;98837.38;5101117;28;19998;-94
2022/02/23 15:39:24;;;;;;;;;;;;;;;9.73;40.35;98834.56;5093642;28;19975;-94
2022/02/23 15:41:52;;;;;;;;;;;;;;;9.69;40.57;98825.38;5090161;28;20298;-94
2022/02/23 15:44:21;;;;;;;;;;;;;;;10.15;40.36;98827.72;5098073;28;20336;-93
2022/02/23 15:47:14;;;;;;;;;;;;;;;10.46;40.31;98834.50;5101769;28;19927;-94
2022/02/23 15:53:37;;;;;;;;;;;;;;;10.30;41.76;98818.66;5086180;28;19927;-91
2022/02/23 15:56:09;;;;;;;;;;;;;;;10.25;42.80;98821.41;5087186;28;19924;-94
2022/02/23 15:58:38;;;;;;;;;;;;;;;10.14;43.51;98820.66;5089809;28;19928;-91
2022/02/23 16:01:06;;;;;;;;;;;;;;;10.07;42.43;98817.50;5087074;28;20404;-92
2022/02/23 16:03:35;;;;;;;;;;;;;;;10.01;43.13;98815.88;5083136;28;19955;-93
2022/02/23 16:06:10;;;;;;;;;;;;;;;9.96;42.65;98809.44;5090324;28;19920;-92
2022/02/23 16:08:38;;;;;;;;;;;;;;;9.96;42.98;98809.44;5085369;28;20397;-93
2022/02/23 16:11:07;;;;;;;;;;;;;;;9.90;43.85;98804.31;5090559;28;20415;-93
2022/02/23 16:13:37;;;;;;;;;;;;;;;9.86;43.66;98806.81;5089532;28;19942;-94
2022/02/23 16:16:07;;;;;;;;;;;;;;;9.86;42.84;98808.72;5091375;28;19956;-93
2022/02/23 16:18:36;;;;;;;;;;;;;;;9.94;42.67;98806.19;5092086;28;20385;-94
2022/02/23 16:21:29;;;;;;;;;;;;;;;10.22;41.30;98803.75;5087462;28;20340;-94
2022/02/23 16:24:33;;;;;;;;;;;;;;;9.82;44.40;98803.03;5085931;28;19924;-94
2022/02/23 16:27:01;;;;;;;;;;;;;;;9.67;44.50;98795.00;5090488;28;19931;-92
2022/02/23 16:29:31;;;;;;;;;;;;;;;9.60;44.10;98794.53;5090547;28;20370;-92
2022/02/23 16:31:59;;;;;;;;;;;;;;;9.56;44.17;98788.84;5088760;28;19923;-93
2022/02/23 16:34:48;;;;;;;;;;;;;;;9.47;44.04;98795.16;5103769;28;19931;-91
2022/02/23 16:37:16;;;;;;;;;;;;;;;9.41;44.77;98794.38;5092798;28;19935;-91
2022/02/23 16:39:48;;;;;;;;;;;;;;;9.53;43.55;98794.03;5091295;28;19930;-92
2022/02/23 16:42:17;;;;;;;;;;;;;;;9.42;44.02;98794.09;5088652;28;19927;-94
2022/02/23 16:44:47;;;;;;;;;;;;;;;9.36;45.20;98795.22;5084104;28;20338;-93
2022/02/23 16:47:16;;;;;;;;;;;;;;;9.28;45.06;98790.41;5068160;28;19968;-92
2022/02/23 16:49:51;;;;;;;;;;;;;;;9.29;44.91;98789.31;5067153;28;19934;-92
2022/02/23 16:52:45;;;;;;;;;;;;;;;9.39;44.53;98794.69;5069115;28;19932;-94
2022/02/23 16:55:14;;;;;;;;;;;;;;;9.46;44.33;98788.94;5049698;28;19960;-94
2022/02/23 16:57:42;;;;;;;;;;;;;;;9.28;44.65;98793.13;5049285;28;19924;-94
2022/02/23 17:00:13;;;;;;;;;;;;;;;9.19;45.35;98794.81;5077901;28;20302;-93
2022/02/23 17:02:41;;;;;;;;;;;;;;;9.08;45.84;98790.53;5066165;28;19920;-89